Time;durP1;ratioP1;P1;durP2;ratioP2;P2;SDS_P1;SDS_P2;PMS_P1;PMS_P2;Temp;Humidity;BMP_temperature;BMP_pressure;BME280_temperature;BME280_humidity;BME280_pressure;Samples;Min_cycle;Max_cycle;Signal;HPM_P1;HPM_P2
2024/02/11 00:00:53;;;;;;;;;;;;;;;3.77;100.00;90071.91;4806446;29;19917;-82
2024/02/11 00:03:27;;;;;;;;;;;;;;;3.79;100.00;90071.59;4803463;29;19917;-80
2024/02/11 00:05:53;;;;;;;;;;;;;;;3.73;100.00;90076.91;4789400;29;19944;-81
2024/02/11 00:08:19;;;;;;;;;;;;;;;3.74;100.00;90067.34;4806458;29;19983;-80
2024/02/11 00:10:45;;;;;;;;;;;;;;;3.69;100.00;90072.63;4806831;29;19921;-80
2024/02/11 00:13:12;;;;;;;;;;;;;;;3.67;100.00;90077.34;4802494;29;19963;-80
2024/02/11 00:15:39;;;;;;;;;;;;;;;3.69;100.00;90072.63;4800280;29;19921;-80
2024/02/11 00:18:05;;;;;;;;;;;;;;;3.68;100.00;90076.31;4797043;29;19940;-81
2024/02/11 00:20:31;;;;;;;;;;;;;;;3.69;100.00;90070.84;4800544;29;19935;-81
2024/02/11 00:22:56;;;;;;;;;;;;;;;3.70;100.00;90061.25;4799527;29;19917;-80
2024/02/11 00:25:22;;;;;;;;;;;;;;;3.71;100.00;90067.94;4785929;29;20380;-81
2024/02/11 00:27:52;;;;;;;;;;;;;;;3.71;100.00;90063.50;4788475;29;19933;-79
2024/02/11 00:30:19;;;;;;;;;;;;;;;3.71;100.00;90067.94;4804028;29;20298;-79
2024/02/11 00:32:46;;;;;;;;;;;;;;;3.71;100.00;90071.28;4805289;29;19917;-80
2024/02/11 00:35:15;;;;;;;;;;;;;;;3.70;100.00;90069.00;4805119;29;19980;-81
2024/02/11 00:37:40;;;;;;;;;;;;;;;3.70;100.00;90072.34;4799598;29;19929;-81
2024/02/11 00:40:06;;;;;;;;;;;;;;;3.70;100.00;90066.41;4800283;29;19928;-80
2024/02/11 00:42:34;;;;;;;;;;;;;;;3.71;100.00;90073.09;4797917;29;20393;-80
2024/02/11 00:45:00;;;;;;;;;;;;;;;3.72;100.00;90069.47;4802315;29;19952;-81
2024/02/11 00:47:27;;;;;;;;;;;;;;;3.72;100.00;90061.69;4804011;29;19913;-79
2024/02/11 00:49:54;;;;;;;;;;;;;;;3.73;100.00;90068.38;4801343;29;20691;-80
2024/02/11 00:52:19;;;;;;;;;;;;;;;3.66;100.00;90053.31;4798802;29;19928;-80
2024/02/11 00:54:45;;;;;;;;;;;;;;;3.74;100.00;90068.09;4799325;29;19916;-80
2024/02/11 00:57:10;;;;;;;;;;;;;;;3.75;100.00;90068.84;4799508;29;19936;-80
2024/02/11 00:59:36;;;;;;;;;;;;;;;3.75;100.00;90068.84;4795348;29;20948;-79
2024/02/11 01:02:03;;;;;;;;;;;;;;;3.76;100.00;90070.38;4796825;29;19921;-81
2024/02/11 01:04:28;;;;;;;;;;;;;;;3.79;100.00;90069.78;4798481;29;19929;-79
2024/02/11 01:06:57;;;;;;;;;;;;;;;3.74;100.00;90070.69;4798216;29;19957;-81
2024/02/11 01:09:23;;;;;;;;;;;;;;;3.74;100.00;90068.09;4798493;29;20750;-80
2024/02/11 01:11:50;;;;;;;;;;;;;;;3.73;100.00;90073.56;4798199;29;20009;-81
2024/02/11 01:14:18;;;;;;;;;;;;;;;3.72;100.00;90075.41;4799479;29;19925;-79
2024/02/11 01:16:44;;;;;;;;;;;;;;;3.72;100.00;90074.63;4803898;29;20403;-80
2024/02/11 01:19:10;;;;;;;;;;;;;;;3.74;100.00;90075.09;4802976;29;19921;-80
2024/02/11 01:21:36;;;;;;;;;;;;;;;3.75;100.00;90077.38;4796218;29;19932;-81
2024/02/11 01:24:01;;;;;;;;;;;;;;;3.76;100.00;90075.56;4799370;29;19917;-80
2024/02/11 01:26:27;;;;;;;;;;;;;;;3.73;100.00;90071.72;4799723;29;20357;-80
2024/02/11 01:28:52;;;;;;;;;;;;;;;3.71;100.00;90073.09;4798158;29;19925;-80
2024/02/11 01:31:18;;;;;;;;;;;;;;;3.71;100.00;90079.03;4810112;29;20019;-79
2024/02/11 01:33:43;;;;;;;;;;;;;;;3.72;100.00;90079.81;4801546;29;20024;-81
2024/02/11 01:36:11;;;;;;;;;;;;;;;3.74;100.00;90077.69;4800252;29;19935;-81
2024/02/11 01:38:38;;;;;;;;;;;;;;;3.89;100.00;90087.56;4800681;29;19925;-80
2024/02/11 01:41:03;;;;;;;;;;;;;;;3.85;100.00;90081.50;4801709;29;19924;-80
2024/02/11 01:43:29;;;;;;;;;;;;;;;3.95;100.00;90088.22;4801143;29;20212;-81
2024/02/11 01:45:56;;;;;;;;;;;;;;;3.84;100.00;90081.81;4804856;29;20389;-80
2024/02/11 01:48:22;;;;;;;;;;;;;;;3.78;100.00;90083.00;4803178;29;19928;-80
2024/02/11 01:50:52;;;;;;;;;;;;;;;3.75;100.00;90086.97;4803230;29;19913;-79
2024/02/11 01:53:20;;;;;;;;;;;;;;;3.73;100.00;90074.31;4798467;29;19928;-79
2024/02/11 01:55:46;;;;;;;;;;;;;;;3.74;100.00;90077.69;4800781;29;19921;-79
2024/02/11 01:58:13;;;;;;;;;;;;;;;3.72;100.00;90075.41;4793184;29;19979;-79
2024/02/11 02:00:40;;;;;;;;;;;;;;;3.71;100.00;90070.50;4797233;29;19924;-81
2024/02/11 02:03:06;;;;;;;;;;;;;;;3.72;100.00;90064.28;4800410;29;19916;-80
2024/02/11 02:05:31;;;;;;;;;;;;;;;3.72;100.00;90065.03;4799414;29;20016;-81
2024/02/11 02:07:59;;;;;;;;;;;;;;;3.73;100.00;90068.38;4802213;29;19972;-79
2024/02/11 02:10:24;;;;;;;;;;;;;;;3.75;100.00;90063.66;4801916;29;19945;-81
2024/02/11 02:12:50;;;;;;;;;;;;;;;3.75;100.00;90055.91;4799881;29;19971;-80
2024/02/11 02:15:15;;;;;;;;;;;;;;;3.74;100.00;90062.16;4798708;29;19951;-81
2024/02/11 02:17:44;;;;;;;;;;;;;;;3.74;100.00;90055.16;4799997;29;19972;-81
2024/02/11 02:20:09;;;;;;;;;;;;;;;3.75;100.00;90053.31;4799465;29;19921;-81
2024/02/11 02:22:35;;;;;;;;;;;;;;;3.76;100.00;90052.28;4805049;29;20373;-79
2024/02/11 02:25:00;;;;;;;;;;;;;;;3.75;100.00;90050.72;4802930;29;20294;-80
2024/02/11 02:27:26;;;;;;;;;;;;;;;3.73;100.00;90045.09;4797738;29;20280;-80
2024/02/11 02:29:51;;;;;;;;;;;;;;;3.75;100.00;90037.78;4798626;29;19921;-80
2024/02/11 02:32:17;;;;;;;;;;;;;;;3.73;100.00;90038.09;4799952;29;19929;-80
2024/02/11 02:34:43;;;;;;;;;;;;;;;3.75;100.00;90035.97;4809194;29;19932;-79
2024/02/11 02:37:08;;;;;;;;;;;;;;;3.76;100.00;90028.97;4792780;29;20018;-80
2024/02/11 02:39:35;;;;;;;;;;;;;;;3.73;100.00;90029.56;4795702;29;20009;-78
2024/02/11 02:42:00;;;;;;;;;;;;;;;3.71;100.00;90031.69;4794285;29;19926;-80
2024/02/11 02:44:26;;;;;;;;;;;;;;;3.75;100.00;90027.44;4792559;29;19928;-78
2024/02/11 02:46:52;;;;;;;;;;;;;;;3.68;100.00;90032.31;4778795;29;20642;-81
2024/02/11 02:49:18;;;;;;;;;;;;;;;3.66;100.00;90026.69;4796096;29;20424;-80
2024/02/11 02:51:43;;;;;;;;;;;;;;;3.65;100.00;90028.50;4804266;29;19926;-80
2024/02/11 02:54:09;;;;;;;;;;;;;;;3.67;100.00;90020.44;4803770;29;19913;-80
2024/02/11 02:56:36;;;;;;;;;;;;;;;3.68;100.00;90022.72;4797836;29;20224;-80
2024/02/11 02:59:05;;;;;;;;;;;;;;;3.70;100.00;90027.59;4796014;29;19940;-80
2024/02/11 03:01:31;;;;;;;;;;;;;;;3.71;100.00;90019.53;4794154;29;19936;-79
2024/02/11 03:04:00;;;;;;;;;;;;;;;3.85;100.00;90029.75;4798299;29;19921;-80
2024/02/11 03:06:25;;;;;;;;;;;;;;;3.88;100.00;90030.97;4796181;29;20021;-79
2024/02/11 03:08:51;;;;;;;;;;;;;;;3.94;100.00;90033.09;4797545;29;20400;-78
2024/02/11 03:11:16;;;;;;;;;;;;;;;3.87;100.00;90029.41;4798070;29;19925;-79
2024/02/11 03:13:43;;;;;;;;;;;;;;;3.80;100.00;90031.72;4803431;29;20024;-81
2024/02/11 03:16:08;;;;;;;;;;;;;;;3.76;100.00;90036.75;4802182;29;19921;-80
2024/02/11 03:18:33;;;;;;;;;;;;;;;3.72;100.00;90028.06;4803816;29;20144;-80
2024/02/11 03:20:59;;;;;;;;;;;;;;;3.71;100.00;90026.53;4798933;29;19991;-79
2024/02/11 03:23:25;;;;;;;;;;;;;;;3.70;100.00;90025.03;4812350;29;19917;-79
2024/02/11 03:25:51;;;;;;;;;;;;;;;3.71;100.00;90027.28;4802803;29;19927;-80
2024/02/11 03:28:17;;;;;;;;;;;;;;;3.69;100.00;90024.25;4805110;29;19932;-80
2024/02/11 03:30:43;;;;;;;;;;;;;;;3.70;100.00;90030.19;4804305;29;20382;-78
2024/02/11 03:33:08;;;;;;;;;;;;;;;3.70;100.00;90027.59;4801785;29;20305;-81
2024/02/11 03:35:33;;;;;;;;;;;;;;;3.69;100.00;90028.66;4804807;29;19948;-80
2024/02/11 03:37:59;;;;;;;;;;;;;;;3.68;100.00;90038.25;4806278;29;19925;-79
2024/02/11 03:40:27;;;;;;;;;;;;;;;3.65;100.00;90025.94;4804628;29;20273;-81
2024/02/11 03:42:52;;;;;;;;;;;;;;;3.66;100.00;90035.19;4804654;29;20269;-80
2024/02/11 03:45:19;;;;;;;;;;;;;;;3.68;100.00;90025.31;4790774;29;19921;-80
2024/02/11 03:47:47;;;;;;;;;;;;;;;3.67;100.00;90028.19;4805752;29;19927;-80
2024/02/11 03:50:13;;;;;;;;;;;;;;;3.66;100.00;90029.28;4800970;29;20609;-81
2024/02/11 03:52:39;;;;;;;;;;;;;;;3.66;100.00;90024.09;4806151;29;20332;-78
2024/02/11 03:55:10;;;;;;;;;;;;;;;3.65;100.00;90027.75;4787485;29;19944;-80
2024/02/11 03:57:37;;;;;;;;;;;;;;;3.67;100.00;90028.97;4800859;29;19932;-79
2024/02/11 04:00:09;;;;;;;;;;;;;;;3.65;100.00;90038.09;4804530;29;19928;-79
2024/02/11 04:02:35;;;;;;;;;;;;;;;3.64;100.00;90033.97;4806802;29;20003;-80
2024/02/11 04:05:00;;;;;;;;;;;;;;;3.64;100.00;90034.75;4807174;29;19952;-80
2024/02/11 04:07:26;;;;;;;;;;;;;;;3.65;100.00;90027.75;4810836;29;20389;-78
2024/02/11 04:09:52;;;;;;;;;;;;;;;3.63;100.00;90025.47;4812348;29;20325;-80
2024/02/11 04:12:18;;;;;;;;;;;;;;;3.71;100.00;90027.28;4805490;29;19917;-79
2024/02/11 04:14:45;;;;;;;;;;;;;;;3.65;100.00;90022.59;4812403;29;19913;-78
2024/02/11 04:17:14;;;;;;;;;;;;;;;3.68;100.00;90024.56;4811985;29;20054;-78
2024/02/11 04:19:40;;;;;;;;;;;;;;;3.57;100.00;90010.41;4813761;29;19925;-78
2024/02/11 04:22:06;;;;;;;;;;;;;;;3.64;100.00;90018.47;4812641;29;19996;-78
2024/02/11 04:24:31;;;;;;;;;;;;;;;3.63;100.00;90016.94;4812717;29;20260;-78
2024/02/11 04:26:57;;;;;;;;;;;;;;;3.64;100.00;90021.03;4811811;29;19931;-79
2024/02/11 04:29:23;;;;;;;;;;;;;;;3.64;100.00;90016.63;4810437;29;20376;-78
2024/02/11 04:31:51;;;;;;;;;;;;;;;3.68;100.00;90016.78;4810566;29;19932;-79
2024/02/11 04:34:17;;;;;;;;;;;;;;;3.68;100.00;90022.72;4812284;29;19925;-79
2024/02/11 04:36:43;;;;;;;;;;;;;;;3.70;100.00;90019.84;4810763;29;19941;-78
2024/02/11 04:39:08;;;;;;;;;;;;;;;3.69;100.00;90019.09;4810947;29;19925;-79
2024/02/11 04:41:39;;;;;;;;;;;;;;;3.67;100.00;90023.81;4816778;29;19921;-78
2024/02/11 04:44:05;;;;;;;;;;;;;;;3.68;100.00;90027.16;4808589;29;19976;-80
2024/02/11 04:46:34;;;;;;;;;;;;;;;3.68;100.00;90024.56;4805537;29;20020;-78
2024/02/11 04:48:59;;;;;;;;;;;;;;;3.69;100.00;90028.66;4803075;29;19924;-79
2024/02/11 04:51:28;;;;;;;;;;;;;;;3.69;100.00;90029.44;4805648;29;20366;-79
2024/02/11 04:53:57;;;;;;;;;;;;;;;3.73;100.00;90034.75;4807101;29;20077;-78
2024/02/11 04:56:27;;;;;;;;;;;;;;;3.73;100.00;90034.75;4806224;29;19952;-81
2024/02/11 04:58:53;;;;;;;;;;;;;;;3.74;100.00;90044.06;4805398;29;19928;-80
2024/02/11 05:01:18;;;;;;;;;;;;;;;3.76;100.00;90044.50;4805269;29;19948;-81
2024/02/11 05:03:46;;;;;;;;;;;;;;;3.78;100.00;90042.34;4805594;29;19924;-80
2024/02/11 05:06:12;;;;;;;;;;;;;;;3.77;100.00;90046.03;4804353;29;19951;-79
2024/02/11 05:08:38;;;;;;;;;;;;;;;3.77;100.00;90046.03;4805938;29;20326;-79
2024/02/11 05:11:05;;;;;;;;;;;;;;;3.78;100.00;90044.94;4805265;29;19924;-80
2024/02/11 05:13:32;;;;;;;;;;;;;;;3.79;100.00;90048.31;4811557;29;19964;-79
2024/02/11 05:16:02;;;;;;;;;;;;;;;3.79;100.00;90049.06;4805187;29;20007;-80
2024/02/11 05:18:29;;;;;;;;;;;;;;;3.78;100.00;90052.72;4798705;29;20004;-80
2024/02/11 05:20:56;;;;;;;;;;;;;;;3.77;100.00;90056.38;4805578;29;19925;-78
2024/02/11 05:23:22;;;;;;;;;;;;;;;3.75;100.00;90054.06;4803945;29;20314;-79
2024/02/11 05:25:47;;;;;;;;;;;;;;;3.76;100.00;90049.69;4803667;29;19958;-80
2024/02/11 05:28:15;;;;;;;;;;;;;;;3.76;100.00;90052.28;4804822;29;19967;-80
2024/02/11 05:30:45;;;;;;;;;;;;;;;3.76;100.00;90054.88;4803252;29;19917;-81
2024/02/11 05:33:12;;;;;;;;;;;;;;;3.76;100.00;90052.28;4804718;29;20445;-80
2024/02/11 05:35:38;;;;;;;;;;;;;;;3.68;100.00;90058.94;4804121;29;19920;-79
2024/02/11 05:38:06;;;;;;;;;;;;;;;3.74;100.00;90052.56;4804552;29;19929;-80
2024/02/11 05:40:32;;;;;;;;;;;;;;;3.70;100.00;90066.41;4804621;29;19920;-80
2024/02/11 05:43:01;;;;;;;;;;;;;;;3.67;100.00;90059.25;4804005;29;20406;-81
2024/02/11 05:45:27;;;;;;;;;;;;;;;3.63;100.00;90058.34;4798422;29;20399;-81
2024/02/11 05:47:53;;;;;;;;;;;;;;;3.60;100.00;90061.53;4804275;29;19969;-80
2024/02/11 05:50:20;;;;;;;;;;;;;;;3.61;100.00;90057.88;4804408;29;19997;-80
2024/02/11 05:52:46;;;;;;;;;;;;;;;3.61;100.00;90068.22;4804970;29;19921;-81
2024/02/11 05:55:16;;;;;;;;;;;;;;;3.67;100.00;90065.19;4803999;29;20053;-80
2024/02/11 05:57:42;;;;;;;;;;;;;;;3.64;100.00;90070.97;4804925;29;19989;-80
2024/02/11 06:00:12;;;;;;;;;;;;;;;3.65;100.00;90069.91;4803754;29;19956;-80
2024/02/11 06:02:48;;;;;;;;;;;;;;;3.65;100.00;90071.75;4800461;29;20359;-81
2024/02/11 06:05:14;;;;;;;;;;;;;;;3.67;100.00;90072.19;4804490;29;19917;-81
2024/02/11 06:07:46;;;;;;;;;;;;;;;3.68;100.00;90071.88;4804593;29;19928;-81
2024/02/11 06:10:12;;;;;;;;;;;;;;;3.67;100.00;90082.53;4804790;29;19943;-82
2024/02/11 06:12:38;;;;;;;;;;;;;;;3.68;100.00;90086.66;4803550;29;19981;-82
2024/02/11 06:15:04;;;;;;;;;;;;;;;3.69;100.00;90088.94;4803311;29;20008;-80
2024/02/11 06:17:31;;;;;;;;;;;;;;;3.69;100.00;90088.16;4803882;29;19975;-81
2024/02/11 06:19:58;;;;;;;;;;;;;;;3.70;100.00;90087.88;4804704;29;19970;-80
2024/02/11 06:22:25;;;;;;;;;;;;;;;3.70;100.00;90085.28;4804375;29;19921;-81
2024/02/11 06:24:51;;;;;;;;;;;;;;;3.71;100.00;90086.03;4803011;29;19920;-81
2024/02/11 06:27:17;;;;;;;;;;;;;;;3.69;100.00;90090.75;4803236;29;19925;-79
2024/02/11 06:29:42;;;;;;;;;;;;;;;3.71;100.00;90094.56;4804338;29;20286;-78
2024/02/11 06:32:08;;;;;;;;;;;;;;;3.70;100.00;90092.28;4801968;29;20012;-77
2024/02/11 06:34:34;;;;;;;;;;;;;;;3.72;100.00;90100.50;4803891;29;19951;-79
2024/02/11 06:37:00;;;;;;;;;;;;;;;3.73;100.00;90104.63;4804465;29;20389;-79
2024/02/11 06:39:26;;;;;;;;;;;;;;;3.73;100.00;90104.63;4803410;29;19928;-80
2024/02/11 06:41:51;;;;;;;;;;;;;;;3.73;100.00;90107.19;4804657;29;19913;-79
2024/02/11 06:44:18;;;;;;;;;;;;;;;3.75;100.00;90110.25;4803218;29;19921;-80
2024/02/11 06:46:44;;;;;;;;;;;;;;;3.76;100.00;90116.97;4804348;29;19969;-81
2024/02/11 06:49:09;;;;;;;;;;;;;;;3.75;100.00;90115.44;4788447;29;19931;-81
2024/02/11 06:51:35;;;;;;;;;;;;;;;3.78;100.00;90120.00;4803144;29;19999;-80
2024/02/11 06:54:02;;;;;;;;;;;;;;;3.80;100.00;90128.22;4803281;29;19921;-79
2024/02/11 06:56:27;;;;;;;;;;;;;;;3.83;100.00;90126.84;4805249;29;20424;-80
2024/02/11 06:58:56;;;;;;;;;;;;;;;3.84;100.00;90125.81;4804973;29;20127;-80
2024/02/11 07:01:22;;;;;;;;;;;;;;;3.85;100.00;90130.69;4804532;29;19921;-81
2024/02/11 07:03:49;;;;;;;;;;;;;;;3.85;100.00;90130.69;4807582;29;19932;-79
2024/02/11 07:06:15;;;;;;;;;;;;;;;3.90;100.00;90134.94;4807247;29;19917;-80
2024/02/11 07:08:41;;;;;;;;;;;;;;;3.91;100.00;90147.56;4808615;29;20032;-72
2024/02/11 07:11:08;;;;;;;;;;;;;;;3.87;100.00;90138.91;4807466;29;19929;-79
2024/02/11 07:13:34;;;;;;;;;;;;;;;3.95;100.00;90147.75;4807241;29;19925;-79
2024/02/11 07:15:59;;;;;;;;;;;;;;;3.96;100.00;90150.03;4806200;29;19970;-78
2024/02/11 07:18:25;;;;;;;;;;;;;;;3.98;100.00;90165.25;4815390;29;19924;-79
2024/02/11 07:20:51;;;;;;;;;;;;;;;4.03;100.00;90161.75;4818046;29;19917;-77
2024/02/11 07:23:17;;;;;;;;;;;;;;;4.04;100.00;90163.28;4806590;29;19928;-79
2024/02/11 07:25:42;;;;;;;;;;;;;;;4.05;100.00;90167.38;4807217;29;19917;-78
2024/02/11 07:28:08;;;;;;;;;;;;;;;4.09;100.00;90170.91;4804865;29;19952;-78
2024/02/11 07:30:34;;;;;;;;;;;;;;;4.07;100.00;90173.03;4807149;29;19927;-75
2024/02/11 07:32:59;;;;;;;;;;;;;;;4.06;100.00;90176.69;4806223;29;19960;-79
2024/02/11 07:35:25;;;;;;;;;;;;;;;4.09;100.00;90181.25;4790409;29;19964;-76
2024/02/11 07:37:51;;;;;;;;;;;;;;;4.18;100.00;90185.38;4806297;29;19987;-78
2024/02/11 07:40:16;;;;;;;;;;;;;;;4.14;100.00;90188.88;4807137;29;20290;-79
2024/02/11 07:42:42;;;;;;;;;;;;;;;4.15;100.00;90190.41;4813703;29;19924;-77
2024/02/11 07:45:08;;;;;;;;;;;;;;;4.13;100.00;90187.38;4824911;29;19956;-78
2024/02/11 07:47:33;;;;;;;;;;;;;;;4.14;100.00;90194.06;4807298;29;20302;-79
2024/02/11 07:50:00;;;;;;;;;;;;;;;4.16;100.00;90194.53;4806694;29;19924;-75
2024/02/11 07:52:27;;;;;;;;;;;;;;;4.19;100.00;90201.69;4804873;29;19921;-78
2024/02/11 07:54:52;;;;;;;;;;;;;;;4.16;100.00;90203.03;4805714;29;19912;-77
2024/02/11 07:57:18;;;;;;;;;;;;;;;4.16;100.00;90199.69;4804301;29;19932;-78
2024/02/11 07:59:43;;;;;;;;;;;;;;;4.16;100.00;90202.28;4821105;29;20582;-77
2024/02/11 08:02:08;;;;;;;;;;;;;;;4.17;100.00;90209.00;4823078;29;20434;-79
2024/02/11 08:04:34;;;;;;;;;;;;;;;4.17;100.00;90206.41;4824331;29;20386;-78
2024/02/11 08:06:59;;;;;;;;;;;;;;;4.18;100.00;90221.63;4807857;29;19921;-78
2024/02/11 08:09:25;;;;;;;;;;;;;;;4.19;100.00;90217.25;4807071;29;19921;-79
2024/02/11 08:11:50;;;;;;;;;;;;;;;4.19;100.00;90222.41;4806236;29;20189;-77
2024/02/11 08:14:17;;;;;;;;;;;;;;;4.19;100.00;90219.84;4805584;29;19925;-78
2024/02/11 08:16:42;;;;;;;;;;;;;;;4.20;100.00;90229.13;4805836;29;19943;-78
2024/02/11 08:19:08;;;;;;;;;;;;;;;4.22;100.00;90234.75;4806032;29;19920;-76
2024/02/11 08:21:35;;;;;;;;;;;;;;;4.24;100.00;90237.06;4805772;29;20310;-78
2024/02/11 08:24:02;;;;;;;;;;;;;;;4.25;100.00;90233.38;4806133;29;19917;-79
2024/02/11 08:26:28;;;;;;;;;;;;;;;4.28;100.00;90236.16;4799469;29;19974;-78
2024/02/11 08:28:59;;;;;;;;;;;;;;;4.32;100.00;90228.50;4800911;29;20237;-78
2024/02/11 08:31:24;;;;;;;;;;;;;;;4.35;100.00;90231.28;4806413;29;19947;-76
2024/02/11 08:33:50;;;;;;;;;;;;;;;4.36;100.00;90224.25;4803262;29;19917;-77
2024/02/11 08:36:15;;;;;;;;;;;;;;;4.38;100.00;90230.66;4803781;29;19921;-76
2024/02/11 08:38:41;;;;;;;;;;;;;;;4.41;100.00;90236.31;4803999;29;19921;-76
2024/02/11 08:41:07;;;;;;;;;;;;;;;4.41;100.00;90224.09;4789478;29;19921;-77
2024/02/11 08:43:32;;;;;;;;;;;;;;;4.42;100.00;90230.81;4806962;29;19917;-80
2024/02/11 08:46:03;;;;;;;;;;;;;;;4.44;100.00;90228.69;4806694;29;19928;-78
2024/02/11 08:48:29;;;;;;;;;;;;;;;4.48;100.00;90231.44;4806838;29;19921;-78
2024/02/11 08:50:54;;;;;;;;;;;;;;;4.48;100.00;90234.03;4804497;29;19921;-78
2024/02/11 08:53:20;;;;;;;;;;;;;;;4.49;100.00;90227.78;4809317;29;19913;-78
2024/02/11 08:55:45;;;;;;;;;;;;;;;4.50;100.00;90235.28;4805037;29;20003;-77
2024/02/11 08:58:14;;;;;;;;;;;;;;;4.51;100.00;90228.25;4804662;29;19981;-77
2024/02/11 09:00:40;;;;;;;;;;;;;;;4.52;100.00;90225.34;4807421;29;20136;-78
2024/02/11 09:03:06;;;;;;;;;;;;;;;4.55;100.00;90231.78;4803787;29;19960;-77
2024/02/11 09:05:34;;;;;;;;;;;;;;;4.57;100.00;90227.81;4802998;29;19963;-76
2024/02/11 09:07:59;;;;;;;;;;;;;;;4.63;100.00;90232.81;4802322;29;19917;-76
2024/02/11 09:10:25;;;;;;;;;;;;;;;4.66;100.00;90232.22;4802434;29;19917;-77
2024/02/11 09:12:50;;;;;;;;;;;;;;;4.77;100.00;90244.59;4802507;29;20305;-76
2024/02/11 09:15:16;;;;;;;;;;;;;;;4.80;100.00;90241.38;4803200;29;19970;-77
2024/02/11 09:17:43;;;;;;;;;;;;;;;4.84;100.00;90253.72;4802984;29;19977;-76
2024/02/11 09:20:12;;;;;;;;;;;;;;;4.87;100.00;90247.94;4802975;29;20230;-76
2024/02/11 09:22:39;;;;;;;;;;;;;;;4.91;100.00;90252.22;4811090;29;19929;-75
2024/02/11 09:25:06;;;;;;;;;;;;;;;4.95;100.00;90253.13;4800870;29;19917;-75
2024/02/11 09:27:32;;;;;;;;;;;;;;;4.99;100.00;90261.03;4801073;29;19921;-76
2024/02/11 09:29:58;;;;;;;;;;;;;;;5.01;100.00;90254.47;4802235;29;19917;-77
2024/02/11 09:32:24;;;;;;;;;;;;;;;5.03;100.00;90254.19;4803365;29;19960;-75
2024/02/11 09:34:50;;;;;;;;;;;;;;;5.06;100.00;90261.34;4801984;29;20316;-76
2024/02/11 09:37:17;;;;;;;;;;;;;;;5.09;100.00;90265.94;4811933;29;20526;-78
2024/02/11 09:39:42;;;;;;;;;;;;;;;5.12;100.00;90262.72;4804032;29;19921;-77
2024/02/11 09:42:13;;;;;;;;;;;;;;;5.14;100.00;90268.34;4803504;29;20281;-77
2024/02/11 09:44:39;;;;;;;;;;;;;;;5.20;100.00;90272.31;4803996;29;19917;-76
2024/02/11 09:47:06;;;;;;;;;;;;;;;5.24;100.00;90271.69;4800722;29;19913;-74
2024/02/11 09:49:33;;;;;;;;;;;;;;;5.28;100.00;90265.59;4801248;29;19947;-75
2024/02/11 09:52:00;;;;;;;;;;;;;;;5.38;100.00;90274.88;4801112;29;20472;-76
2024/02/11 09:54:27;;;;;;;;;;;;;;;5.48;100.00;90271.22;4800811;29;19929;-77
2024/02/11 09:56:52;;;;;;;;;;;;;;;5.57;100.00;90277.16;4803852;29;19921;-77
2024/02/11 09:59:18;;;;;;;;;;;;;;;5.58;100.00;90284.63;4802485;29;20366;-75
2024/02/11 10:01:44;;;;;;;;;;;;;;;5.61;100.00;90289.19;4803430;29;20495;-77
2024/02/11 10:04:11;;;;;;;;;;;;;;;5.66;100.00;90295.31;4804098;29;20021;-76
2024/02/11 10:06:41;;;;;;;;;;;;;;;5.79;100.00;90283.97;4802681;29;20084;-76
2024/02/11 10:09:10;;;;;;;;;;;;;;;5.80;100.00;90290.69;4800691;29;19917;-76
2024/02/11 10:11:39;;;;;;;;;;;;;;;5.80;100.00;90295.88;4802040;29;19916;-75
2024/02/11 10:14:09;;;;;;;;;;;;;;;5.81;100.00;90300.00;4803534;29;20310;-76
2024/02/11 10:16:35;;;;;;;;;;;;;;;5.83;100.00;90295.25;4803483;29;19985;-76
2024/02/11 10:19:01;;;;;;;;;;;;;;;5.88;100.00;90302.09;4803397;29;19980;-77
2024/02/11 10:21:26;;;;;;;;;;;;;;;5.93;100.00;90310.50;4807035;29;19916;-76
2024/02/11 10:23:52;;;;;;;;;;;;;;;5.97;100.00;90303.66;4803563;29;20167;-80
2024/02/11 10:26:18;;;;;;;;;;;;;;;6.03;100.00;90309.41;4804280;29;20011;-82
2024/02/11 10:28:44;;;;;;;;;;;;;;;6.15;100.00;90306.94;4804533;29;19991;-78
2024/02/11 10:31:10;;;;;;;;;;;;;;;6.18;100.00;90311.50;4803820;29;19947;-81
2024/02/11 10:33:36;;;;;;;;;;;;;;;6.27;100.00;90306.28;4804797;29;20189;-78
2024/02/11 10:36:03;;;;;;;;;;;;;;;6.32;100.00;90305.34;4806960;29;19921;-80
2024/02/11 10:38:32;;;;;;;;;;;;;;;6.37;100.00;90308.53;4808916;29;20301;-78
2024/02/11 10:41:01;;;;;;;;;;;;;;;6.44;100.00;90308.81;4809228;29;19917;-79
2024/02/11 10:43:27;;;;;;;;;;;;;;;6.54;100.00;90309.53;4809254;29;19924;-80
2024/02/11 10:45:53;;;;;;;;;;;;;;;6.63;100.00;90299.84;4809846;29;19917;-80
2024/02/11 10:48:19;;;;;;;;;;;;;;;6.76;100.00;90296.25;4809118;29;20427;-81
2024/02/11 10:51:03;;;;;;;;;;;;;;;6.81;100.00;90297.91;4807670;29;20293;-81
2024/02/11 10:53:34;;;;;;;;;;;;;;;6.96;100.00;90293.97;4808467;29;19917;-79
2024/02/11 10:56:01;;;;;;;;;;;;;;;6.96;100.00;90278.34;4807901;29;20413;-81
2024/02/11 10:58:29;;;;;;;;;;;;;;;7.04;100.00;90298.34;4792049;29;19921;-79
2024/02/11 11:00:56;;;;;;;;;;;;;;;7.11;100.00;90303.81;4806861;29;19917;-80
2024/02/11 11:03:26;;;;;;;;;;;;;;;7.15;100.00;90304.69;4807111;29;19917;-81
2024/02/11 11:05:53;;;;;;;;;;;;;;;7.20;100.00;90308.94;4808770;29;19921;-81
2024/02/11 11:08:19;;;;;;;;;;;;;;;7.21;100.00;90308.66;4809024;29;19909;-81
2024/02/11 11:10:44;;;;;;;;;;;;;;;7.27;100.00;90304.00;4808861;29;19920;-81
2024/02/11 11:13:10;;;;;;;;;;;;;;;7.34;100.00;90309.47;4809141;29;19917;-81
2024/02/11 11:15:35;;;;;;;;;;;;;;;7.48;100.00;90312.56;4808669;29;20188;-79
2024/02/11 11:18:02;;;;;;;;;;;;;;;7.55;100.00;90311.28;4792021;29;19934;-80
2024/02/11 11:20:29;;;;;;;;;;;;;;;7.63;100.00;90306.00;4792321;29;19993;-82
2024/02/11 11:22:55;;;;;;;;;;;;;;;7.72;100.00;90306.69;4809005;29;19913;-81
2024/02/11 11:25:24;;;;;;;;;;;;;;;7.77;100.00;90312.75;4809249;29;20341;-81
2024/02/11 11:27:50;;;;;;;;;;;;;;;7.81;100.00;90311.78;4808122;29;19978;-81
2024/02/11 11:30:15;;;;;;;;;;;;;;;7.84;100.00;90311.16;4809273;29;20398;-78
2024/02/11 11:32:48;;;;;;;;;;;;;;;7.86;95.18;90316.06;4810044;29;19939;-81
2024/02/11 11:35:15;;;;;;;;;;;;;;;7.97;100.00;90316.38;4810135;29;20355;-80
2024/02/11 11:37:41;;;;;;;;;;;;;;;8.11;100.00;90317.63;4813372;29;19963;-81
2024/02/11 11:40:08;;;;;;;;;;;;;;;8.15;100.00;90317.75;4812885;29;19925;-77
2024/02/11 11:42:34;;;;;;;;;;;;;;;8.24;100.00;90328.84;4807000;29;20134;-77
2024/02/11 11:45:06;;;;;;;;;;;;;;;8.35;100.00;90318.72;4807607;29;19921;-75
2024/02/11 11:47:34;;;;;;;;;;;;;;;8.49;100.00;90327.03;4805813;29;19929;-78
2024/02/11 11:50:00;;;;;;;;;;;;;;;8.64;100.00;90327.47;4808760;29;20672;-79
2024/02/11 11:52:26;;;;;;;;;;;;;;;8.47;100.00;90325.84;4807106;29;19955;-78
2024/02/11 11:54:51;;;;;;;;;;;;;;;8.40;100.00;90329.00;4808117;29;19958;-77
2024/02/11 11:57:18;;;;;;;;;;;;;;;8.38;100.00;90331.13;4808804;29;19929;-78
2024/02/11 11:59:43;;;;;;;;;;;;;;;8.46;100.00;90326.94;4807431;29;19970;-76
2024/02/11 12:02:09;;;;;;;;;;;;;;;8.49;93.96;90332.25;4791120;29;19968;-75
2024/02/11 12:04:36;;;;;;;;;;;;;;;8.57;96.15;90332.47;4802261;29;20405;-76
2024/02/11 12:07:04;;;;;;;;;;;;;;;8.69;100.00;90327.25;4801337;29;19921;-76
2024/02/11 12:09:30;;;;;;;;;;;;;;;8.75;98.23;90333.78;4804733;29;19917;-73
2024/02/11 12:11:55;;;;;;;;;;;;;;;8.82;97.26;90336.59;4805304;29;19921;-77
2024/02/11 12:14:21;;;;;;;;;;;;;;;8.92;100.00;90333.56;4820734;29;20444;-76
2024/02/11 12:16:47;;;;;;;;;;;;;;;8.96;100.00;90338.88;4807173;29;19917;-76
2024/02/11 12:19:12;;;;;;;;;;;;;;;9.04;95.60;90339.84;4806904;29;19928;-75
2024/02/11 12:21:38;;;;;;;;;;;;;;;9.11;96.25;90340.81;4802577;29;20011;-76
2024/02/11 12:24:11;;;;;;;;;;;;;;;9.19;97.27;90331.34;4804602;29;19947;-74
2024/02/11 12:26:37;;;;;;;;;;;;;;;9.29;100.00;90336.09;4802479;29;19921;-75
2024/02/11 12:29:03;;;;;;;;;;;;;;;9.38;93.60;90338.59;4789758;29;19921;-76
2024/02/11 12:31:28;;;;;;;;;;;;;;;9.41;94.89;90330.09;4802166;29;19964;-75
2024/02/11 12:33:54;;;;;;;;;;;;;;;9.45;94.57;90343.25;4803342;29;19973;-77
2024/02/11 12:36:21;;;;;;;;;;;;;;;9.45;96.44;90333.56;4801568;29;19921;-76
2024/02/11 12:38:47;;;;;;;;;;;;;;;9.43;94.17;90335.75;4802480;29;20356;-75
2024/02/11 12:41:17;;;;;;;;;;;;;;;9.44;83.82;90341.75;4801053;29;19972;-76
2024/02/11 12:43:43;;;;;;;;;;;;;;;9.34;82.04;90338.50;4801051;29;20397;-74